Latest Coastal Weather Observations for Kingscote

IDS60701

Issued at 11:11 am CST Friday 23 June 2017 (issued every 10 minutes, with the page automatically refreshed every 10 minutes)

About coastal observations | Map of coastal stations | Coastal observations for SA | Marine services | Other Formats
Station Details ID: 022841 Name: KINGSCOTE AERO Lat: -35.71 Lon: 137.52 Height: 6.23 m
Data from the previous 72 hours. | See also: Recent months at Kingscote
Date/Time
CST
Temp
°C
Wind Pressure Rain since
9am
mm
Weather Cloud Vis
km
Sea
Height
m
Swell
Dir  Spd
kts
Gust
kts
hPa Trend Height
m
Period
s
Dir
23/11:00am 18.1 NW 8 10 1017.9 - 0.0 - - 10 - - - -
23/10:30am 16.2 CALM 0 0 1018.3 - 0.0 - - 10 - - - -
23/10:00am 13.1 CALM 0 0 1018.0 - 0.0 - Partly cloudy 10 - - - -
23/09:30am 9.3 CALM 0 0 1018.2 - 0.0 - Partly cloudy 10 - - - -
23/09:00am 7.9 CALM 0 0 1018.1 - 0.0 - Cloudy 10 - - - -
23/08:30am 6.3 CALM 0 0 1018.1 - 0.0 - Partly cloudy 10 - - - -
23/08:00am 4.7 CALM 0 0 1017.9 - 0.0 - Cloudy 10 - - - -
23/07:30am 4.1 CALM 0 0 1018.0 - 0.0 - Partly cloudy 10 - - - -
23/07:00am 4.1 CALM 0 0 1017.7 - 0.0 - Partly cloudy 10 - - - -
23/06:30am 4.2 CALM 0 0 1017.6 - 0.0 - Cloudy 10 - - - -
23/06:00am 3.9 CALM 0 0 1017.5 - 0.0 - Mostly cloudy 10 - - - -
23/05:30am 3.5 CALM 0 0 1017.5 - 0.0 - Partly cloudy 10 - - - -
23/05:00am 3.1 CALM 0 0 1017.4 - 0.0 - Partly cloudy 10 - - - -
23/04:30am 3.3 CALM 0 0 1017.7 - 0.0 - Partly cloudy 10 - - - -
23/04:00am 3.3 CALM 0 0 1018.0 - 0.0 - Cloudy 10 - - - -
23/03:30am 2.1 CALM 0 0 1018.1 - 0.0 - Cloudy 10 - - - -
23/03:00am 2.0 CALM 0 0 1018.1 - 0.0 - Mostly clear 10 - - - -
23/02:30am 2.1 CALM 0 0 1018.3 - 0.0 - - 10 - - - -
23/02:20am 1.9 CALM 0 0 1018.5 - 0.0 - Partly cloudy 10 - - - -
23/02:00am 2.2 CALM 0 0 1018.7 - 0.0 - Partly cloudy 1 - - - -
23/01:51am 2.0 CALM 0 0 1018.7 - 0.0 - Partly cloudy 3 - - - -
23/01:35am 2.0 CALM 0 0 1018.8 - 0.0 - Partly cloudy 8 - - - -
23/01:30am 2.2 CALM 0 0 1018.8 - 0.0 - Partly cloudy 3 - - - -
23/01:15am 2.2 CALM 0 0 1018.7 - 0.0 - Partly cloudy 1 - - - -
23/01:01am 2.7 CALM 0 0 1018.9 - 0.0 - Partly cloudy 2 - - - -
23/01:00am 2.6 CALM 0 0 1018.9 - 0.0 - Partly cloudy 2 - - - -
23/12:33am 2.5 CALM 0 0 1019.0 - 0.0 - Partly cloudy 0.4 - - - -
23/12:30am 2.4 CALM 0 0 1019.1 - 0.0 - Partly cloudy 0.3 - - - -
23/12:00am 2.4 CALM 0 0 1019.6 - 0.0 - Cloudy 0.3 - - - -
 
Date/Time
CST
Temp
°C
Wind Pressure Rain since
9am
mm
Weather Cloud Vis
km
Sea
Height
m
Swell
Dir  Spd
kts
Gust
kts
hPa Trend Height
m
Period
s
Dir
22/11:30pm 2.9 CALM 0 0 1019.8 - 0.0 - Cloudy 0.3 - - - -
22/11:07pm 3.0 CALM 0 0 1020.1 - 0.0 - Partly cloudy 0.3 - - - -
22/11:01pm 3.0 CALM 0 0 1020.2 - 0.0 - Partly cloudy 5 - - - -
22/11:00pm 2.9 CALM 0 0 1020.2 - 0.0 - Partly cloudy 10 - - - -
22/10:37pm 4.1 CALM 0 0 1020.4 - 0.0 - - 10 - - - -
22/10:30pm 4.4 CALM 0 0 1020.5 - 0.0 - Partly cloudy 10 - - - -
22/10:09pm 3.8 CALM 0 0 1020.7 - 0.0 - Partly cloudy 0.5 - - - -
22/10:00pm 3.8 CALM 0 0 1020.6 - 0.0 - Partly cloudy - - - - -
22/09:59pm 3.8 CALM 0 0 1020.7 - 0.0 - Partly cloudy - - - - -
22/09:41pm 4.7 CALM 0 0 1020.7 - 0.0 - Partly cloudy 4 - - - -
22/09:30pm 5.0 CALM 0 0 1020.7 - 0.0 - Partly cloudy 10 - - - -
22/09:29pm 4.8 CALM 0 0 1020.7 - 0.0 - Partly cloudy 10 - - - -
22/09:00pm 5.4 CALM 0 0 1021.0 - 0.0 - Partly cloudy 2 - - - -
22/08:58pm 5.4 CALM 0 0 1021.1 - 0.0 - - 4 - - - -
22/08:39pm 5.2 CALM 0 0 1021.1 - 0.0 - - 6 - - - -
22/08:30pm 5.1 CALM 0 0 1021.1 - 0.0 - - 9 - - - -
22/08:20pm 6.2 CALM 0 0 1021.1 - 0.0 - - 3 - - - -
22/08:00pm 6.8 CALM 0 0 1021.0 - 0.0 - - 10 - - - -
22/07:30pm 7.3 CALM 0 0 1020.8 - 0.0 - - 10 - - - -
22/07:00pm 7.8 CALM 0 0 1020.8 - 0.0 - - 10 - - - -
22/06:30pm 9.0 ENE 2 4 1021.0 - 0.0 - - 10 - - - -
22/06:00pm 10.4 NNE 1 4 1021.1 - 0.0 - Partly cloudy 10 - - - -
22/05:30pm 12.9 NNE 6 7 1020.9 - 0.0 - - 10 - - - -
22/05:00pm 14.0 NNE 5 7 1021.0 - 0.0 - - 10 - - - -
22/04:30pm 14.4 NNE 6 8 1021.1 - 0.0 - - 10 - - - -
22/04:00pm 15.6 NNE 8 10 1021.2 - 0.0 - - 10 - - - -
22/03:30pm 16.5 N 6 8 1021.2 - 0.0 - - 10 - - - -
22/03:00pm 16.3 N 8 11 1021.2 - 0.0 - Mostly cloudy 10 - - - -
22/02:30pm 16.6 N 7 9 1021.4 - 0.0 - - 10 - - - -
22/02:00pm 15.9 N 7 9 1021.8 - 0.0 - - 10 - - - -
22/01:30pm 16.2 N 8 12 1022.0 - 0.0 - - 10 - - - -
22/01:00pm 16.3 N 9 13 1022.6 - 0.0 - - 10 - - - -
22/12:30pm 16.5 N 8 13 1023.3 - 0.0 - - 10 - - - -
22/12:00pm 16.5 NNE 8 12 1023.8 - 0.0 - - 10 - - - -
22/11:30am 16.4 N 9 11 1024.6 - 0.0 - - 10 - - - -
22/11:00am 15.8 N 8 11 1025.2 - 0.0 - - 10 - - - -
22/10:30am 14.6 NE 4 7 1025.5 - 0.0 - - 10 - - - -
22/10:00am 11.7 CALM 0 0 1025.8 - 0.0 - - 10 - - - -
22/09:30am 8.6 CALM 0 0 1025.9 - 0.0 - - 10 - - - -
22/09:00am 6.4 CALM 0 0 1025.7 - 0.4 - - 10 - - - -
22/08:30am 4.6 CALM 0 0 1025.8 - 0.4 - - 10 - - - -
22/08:08am 2.9 CALM 0 0 1025.9 - 0.4 - Partly cloudy 0.8 - - - -
22/08:00am 3.3 CALM 0 0 1025.9 - 0.4 - Partly cloudy 0.9 - - - -
22/07:52am 2.5 CALM 0 0 1025.8 - 0.4 - Partly cloudy 0.5 - - - -
22/07:40am 2.2 CALM 0 0 1025.8 - 0.4 - Partly cloudy 0.5 - - - -
22/07:30am 2.6 CALM 0 0 1025.7 - 0.4 - Partly cloudy 2 - - - -
22/07:00am 3.0 CALM 0 0 1025.4 - 0.4 - Partly cloudy 0.5 - - - -
22/06:30am 3.8 CALM 0 0 1025.1 - 0.2 - Cloudy 0.1 - - - -
22/06:00am 4.2 CALM 0 0 1025.2 - 0.2 - Cloudy 0.1 - - - -
22/05:53am 4.3 CALM 0 0 1025.2 - 0.2 - Cloudy 0.1 - - - -
22/05:30am 4.3 CALM 0 0 1025.2 - 0.2 - Cloudy 0.2 - - - -
22/05:00am 4.8 CALM 0 0 1024.8 - 0.2 - Cloudy 0.3 - - - -
22/04:30am 4.8 CALM 0 0 1025.0 - 0.2 - Cloudy 0.2 - - - -
22/04:00am 5.4 CALM 0 0 1025.2 - 0.2 - Cloudy 0.1 - - - -
22/03:30am 5.4 CALM 0 0 1025.3 - 0.2 - Cloudy 0.3 - - - -
22/03:00am 5.1 CALM 0 0 1025.3 - 0.2 - Cloudy 0.1 - - - -
22/02:30am 5.3 CALM 0 0 1025.5 - 0.2 - Cloudy 0.2 - - - -
22/02:00am 6.2 CALM 0 0 1025.8 - 0.2 - Cloudy 0.2 - - - -
22/01:30am 6.7 CALM 0 0 1025.8 - 0.2 - Cloudy 0.2 - - - -
22/01:00am 6.8 CALM 0 0 1025.8 - 0.2 - Cloudy 0.1 - - - -
22/12:30am 7.5 CALM 0 0 1026.1 - 0.2 - Cloudy 0.2 - - - -
22/12:00am 8.3 CALM 0 0 1026.4 - 0.0 - Cloudy 0 - - - -
 
Date/Time
CST
Temp
°C
Wind Pressure Rain since
9am
mm
Weather Cloud Vis
km
Sea
Height
m
Swell
Dir  Spd
kts
Gust
kts
hPa Trend Height
m
Period
s
Dir
21/11:30pm 8.6 CALM 0 0 1026.7 - 0.0 - Cloudy 0.1 - - - -
21/11:00pm 8.3 CALM 0 0 1026.8 - 0.0 - Cloudy 0.1 - - - -
21/10:30pm 7.8 CALM 0 0 1026.9 - 0.0 - Cloudy 0.2 - - - -
21/10:00pm 7.9 CALM 0 0 1027.0 - 0.0 - Cloudy 0.1 - - - -
21/09:30pm 8.2 W 4 5 1027.3 - 0.0 - Cloudy 0.1 - - - -
21/09:00pm 7.8 SW 3 5 1027.4 - 0.0 - Mostly cloudy 0.3 - - - -
21/08:37pm 7.8 SW 3 5 1027.5 - 0.0 - Partly cloudy 0.1 - - - -
21/08:35pm 7.7 SW 3 5 1027.5 - 0.0 - Partly cloudy 0.1 - - - -
21/08:30pm 7.7 WSW 2 5 1027.6 - 0.0 - Partly cloudy 0.1 - - - -
21/08:00pm 9.1 CALM 0 0 1027.4 - 0.0 - Partly cloudy 0.1 - - - -
21/07:54pm 8.8 CALM 0 0 1027.4 - 0.0 - Partly cloudy 0.2 - - - -
21/07:30pm 10.4 CALM 0 0 1027.3 - 0.0 - Partly cloudy 0.8 - - - -
21/07:00pm 10.6 NNE 1 3 1027.0 - 0.0 - Partly cloudy 5 - - - -
21/06:30pm 12.6 CALM 0 0 1026.8 - 0.0 - - 10 - - - -
21/06:00pm 13.5 NE 3 5 1026.6 - 0.0 - Mostly clear 10 - - - -
21/05:30pm 14.6 NE 5 6 1026.3 - 0.0 - Partly cloudy 10 - - - -
21/05:00pm 15.3 N 5 7 1026.4 - 0.0 - Cloudy 10 - - - -
21/04:30pm 15.9 N 6 7 1026.4 - 0.0 - Partly cloudy 10 - - - -
21/04:00pm 16.1 N 7 9 1026.4 - 0.0 - - 10 - - - -
21/03:30pm 16.9 N 7 8 1026.5 - 0.0 - - 10 - - - -
21/03:00pm 17.3 N 7 10 1026.3 - 0.0 - - 10 - - - -
21/02:30pm 17.2 NNE 7 10 1026.2 - 0.0 - Partly cloudy 10 - - - -
21/02:00pm 16.6 NNE 8 11 1026.4 - 0.0 - Partly cloudy 10 - - - -
21/01:30pm 17.2 NE 8 12 1026.7 - 0.0 - - 10 - - - -
21/01:00pm 17.3 NE 8 10 1027.2 - 0.0 - Partly cloudy 10 - - - -
21/12:30pm 16.8 E 6 8 1027.5 - 0.0 - Partly cloudy 10 - - - -
21/12:00pm 17.2 ENE 3 8 1027.9 - 0.0 - - 10 - - - -
21/11:30am 17.2 CALM 0 0 1028.4 - 0.0 - - 10 - - - -
21/11:00am 15.2 CALM 0 0 1028.8 - 0.0 - - 10 - - - -
21/10:38am 13.7 CALM 0 0 1028.9 - 0.0 - Partly cloudy 10 - - - -
21/10:31am 13.4 CALM 0 0 1028.8 - 0.0 - Partly cloudy 10 - - - -
21/10:30am 13.3 CALM 0 0 1028.8 - 0.0 - Partly cloudy 10 - - - -
21/10:00am 11.5 CALM 0 0 1028.7 - 0.0 - Partly cloudy 0.5 - - - -
21/09:53am 11.2 CALM 0 0 1028.7 - 0.0 - Partly cloudy 5 - - - -
21/09:50am 11.2 CALM 0 0 1028.7 - 0.0 - Partly cloudy 10 - - - -
21/09:32am 10.2 CALM 0 0 1028.6 - 0.0 - Partly cloudy 10 - - - -
21/09:30am 10.0 CALM 0 0 1028.6 - 0.0 - Partly cloudy 10 - - - -
21/09:20am 9.1 CALM 0 0 1028.6 - 0.0 - Partly cloudy 10 - - - -
21/09:00am 7.5 CALM 0 0 1028.8 - 0.2 - Cloudy 0.3 - - - -
21/08:30am 5.9 CALM 0 0 1028.8 - 0.2 - Cloudy 0.1 - - - -
21/08:00am 4.4 CALM 0 0 1028.4 - 0.2 - Cloudy 0.6 - - - -
21/07:30am 4.0 S 3 4 1028.0 - 0.2 - Cloudy 0.1 - - - -
21/07:00am 3.4 SE 3 5 1027.8 - 0.2 - Cloudy 0.3 - - - -
21/06:34am 4.2 N 3 7 1027.3 - 0.2 - Partly cloudy 1 - - - -
21/06:30am 4.4 N 2 7 1027.3 - 0.2 - Partly cloudy 2 - - - -
21/06:08am 4.3 CALM 0 0 1027.3 - 0.2 - Partly cloudy 2 - - - -
21/06:00am 3.1 CALM 0 0 1027.3 - 0.2 - Partly cloudy 4 - - - -
21/05:52am 4.2 CALM 0 0 1027.2 - 0.2 - Partly cloudy 2 - - - -
21/05:30am 4.0 CALM 0 0 1027.0 - 0.2 - Partly cloudy 0.3 - - - -
21/05:00am 4.3 CALM 0 0 1027.1 - 0.2 - Partly cloudy 10 - - - -
21/04:47am 4.8 CALM 0 0 1027.1 - 0.0 - Partly cloudy 0.5 - - - -
21/04:33am 4.4 CALM 0 0 1027.1 - 0.0 - Partly cloudy 0.5 - - - -
21/04:30am 4.1 CALM 0 0 1027.1 - 0.0 - Partly cloudy 0.7 - - - -
21/04:00am 4.1 CALM 0 0 1027.0 - 0.0 - Partly cloudy 0.6 - - - -
21/03:54am 4.0 CALM 0 0 1026.9 - 0.0 - Partly cloudy 0.4 - - - -
21/03:49am 3.8 CALM 0 0 1026.9 - 0.0 - Partly cloudy 0.5 - - - -
21/03:36am 4.3 CALM 0 0 1026.9 - 0.0 - Partly cloudy - - - - -
21/03:30am 4.2 CALM 0 0 1026.9 - 0.0 - Partly cloudy - - - - -
21/03:00am 4.6 CALM 0 0 1026.9 - 0.0 - Mostly cloudy 0.2 - - - -
21/02:43am 4.5 CALM 0 0 1026.8 - 0.0 - Partly cloudy 2 - - - -
21/02:30am 5.1 CALM 0 0 1026.9 - 0.0 - Partly cloudy 10 - - - -
21/02:10am 5.1 CALM 0 0 1026.9 - 0.0 - Partly cloudy 10 - - - -
21/02:00am 5.7 CALM 0 0 1026.8 - 0.0 - Partly cloudy 2 - - - -
21/01:31am 5.4 CALM 0 0 1026.6 - 0.0 - Partly cloudy 0.3 - - - -
21/01:30am 5.3 CALM 0 0 1026.6 - 0.0 - Partly cloudy 0.3 - - - -
21/01:10am 5.7 CALM 0 0 1026.6 - 0.0 - Partly cloudy 0.2 - - - -
21/01:00am 5.9 CALM 0 0 1026.6 - 0.0 - Partly cloudy 2 - - - -
21/12:58am 5.8 CALM 0 0 1026.6 - 0.0 - Partly cloudy 4 - - - -
21/12:42am 5.6 CALM 0 0 1026.6 - 0.0 - Partly cloudy 10 - - - -
21/12:30am 5.6 CALM 0 0 1026.8 - 0.0 - Partly cloudy 1 - - - -
21/12:18am 6.3 CALM 0 0 1026.6 - 0.0 - Partly cloudy 3 - - - -
21/12:13am 5.9 CALM 0 0 1026.7 - 0.0 - Partly cloudy 10 - - - -
21/12:09am 5.8 CALM 0 0 1026.6 - 0.0 - Partly cloudy 10 - - - -
21/12:00am 5.6 CALM 0 0 1026.6 - 0.0 - Cloudy 8 - - - -
 
Date/Time
CST
Temp
°C
Wind Pressure Rain since
9am
mm
Weather Cloud Vis
km
Sea
Height
m
Swell
Dir  Spd
kts
Gust
kts
hPa Trend Height
m
Period
s
Dir
20/11:39pm 6.3 CALM 0 0 1026.6 - 0.0 - Partly cloudy 0.3 - - - -
20/11:30pm 6.2 CALM 0 0 1026.6 - 0.0 - Partly cloudy 1 - - - -
20/11:00pm 6.3 CALM 0 0 1026.5 - 0.0 - Partly cloudy 8 - - - -
20/10:30pm 6.7 CALM 0 0 1026.5 - 0.0 - Cloudy 2 - - - -
20/10:00pm 6.6 CALM 0 0 1026.6 - 0.0 - Partly cloudy 0.3 - - - -
20/09:56pm 6.4 CALM 0 0 1026.6 - 0.0 - Partly cloudy 0.3 - - - -
20/09:30pm 6.5 CALM 0 0 1026.7 - 0.0 - Cloudy 0.3 - - - -
20/09:01pm 7.2 CALM 0 0 1026.5 - 0.0 - Partly cloudy 0.1 - - - -
20/09:00pm 7.1 CALM 0 0 1026.5 - 0.0 - Partly cloudy 0.1 - - - -
20/08:42pm 7.4 CALM 0 0 1026.4 - 0.0 - Partly cloudy 3 - - - -
20/08:30pm 8.6 CALM 0 0 1026.3 - 0.0 - - 6 - - - -
20/08:00pm 8.6 CALM 0 0 1026.4 - 0.0 - - 10 - - - -
20/07:30pm 10.1 NNW 1 4 1026.2 - 0.0 - - 10 - - - -
20/07:00pm 12.0 NW 4 4 1026.1 - 0.0 - - 10 - - - -
20/06:30pm 13.3 NW 5 6 1025.8 - 0.0 - Partly cloudy 10 - - - -
20/06:00pm 13.4 NW 6 7 1025.6 - 0.0 - Partly cloudy 10 - - - -
20/05:30pm 13.7 NW 7 8 1025.5 - 0.0 - - 10 - - - -
20/05:00pm 15.5 NW 6 8 1025.2 - 0.0 - - 10 - - - -
20/04:30pm 16.7 NW 8 10 1025.2 - 0.0 - - 10 - - - -
20/04:00pm 17.8 WNW 10 13 1025.2 - 0.0 - - 10 - - - -
20/03:30pm 18.3 WNW 10 14 1025.2 - 0.0 - - 10 - - - -
20/03:00pm 17.8 WNW 12 15 1025.2 - 0.0 - - 10 - - - -
20/02:30pm 18.8 WNW 13 18 1025.1 - 0.0 - - 10 - - - -
20/02:00pm 18.5 NW 13 17 1025.1 - 0.0 - - 10 - - - -
20/01:30pm 18.9 NW 15 20 1025.1 - 0.0 - - 10 - - - -
20/01:00pm 18.5 NW 14 19 1025.3 - 0.0 - - 10 - - - -
20/12:30pm 18.7 NW 12 16 1025.7 - 0.0 - - 10 - - - -
20/12:00pm 18.1 NW 12 15 1026.1 - 0.0 - - 10 - - - -
20/11:30am 17.4 NW 12 16 1026.4 - 0.0 - - 10 - - - -

Other Formats:

Comma delimited format used in spreadsheet applications
http://www.bom.gov.au/fwo/IDS60701/IDS60701.95807.axf

JavaScript Object Notation format (JSON) in row-major order
http://www.bom.gov.au/fwo/IDS60701/IDS60701.95807.json